sensor_id;sensor_type;location;lat;lon;timestamp;P1;durP1;ratioP1;P2;durP2;ratioP2
37203;SDS011;23098;48.054;10.636;2024-03-02T00:00:22;15.70;;;9.45;;
37203;SDS011;23098;48.054;10.636;2024-03-02T00:02:49;12.70;;;9.05;;
37203;SDS011;23098;48.054;10.636;2024-03-02T00:05:16;12.63;;;9.45;;
37203;SDS011;23098;48.054;10.636;2024-03-02T00:07:47;16.90;;;9.88;;
37203;SDS011;23098;48.054;10.636;2024-03-02T00:10:39;14.25;;;9.30;;
37203;SDS011;23098;48.054;10.636;2024-03-02T00:13:08;12.88;;;9.18;;
37203;SDS011;23098;48.054;10.636;2024-03-02T00:15:47;13.23;;;9.30;;
37203;SDS011;23098;48.054;10.636;2024-03-02T00:18:18;14.95;;;9.52;;
37203;SDS011;23098;48.054;10.636;2024-03-02T00:20:55;14.23;;;9.32;;
37203;SDS011;23098;48.054;10.636;2024-03-02T00:23:22;12.40;;;8.73;;
37203;SDS011;23098;48.054;10.636;2024-03-02T00:25:49;13.15;;;9.13;;
37203;SDS011;23098;48.054;10.636;2024-03-02T00:31:15;13.57;;;9.45;;
37203;SDS011;23098;48.054;10.636;2024-03-02T00:33:45;13.93;;;9.48;;
37203;SDS011;23098;48.054;10.636;2024-03-02T00:36:16;15.25;;;8.73;;
37203;SDS011;23098;48.054;10.636;2024-03-02T00:38:51;15.63;;;9.57;;
37203;SDS011;23098;48.054;10.636;2024-03-02T00:43:47;13.73;;;8.23;;
37203;SDS011;23098;48.054;10.636;2024-03-02T00:49:01;14.20;;;9.57;;
37203;SDS011;23098;48.054;10.636;2024-03-02T00:51:48;17.52;;;11.00;;
37203;SDS011;23098;48.054;10.636;2024-03-02T00:54:15;20.45;;;11.77;;
37203;SDS011;23098;48.054;10.636;2024-03-02T00:56:44;16.38;;;10.43;;
37203;SDS011;23098;48.054;10.636;2024-03-02T00:59:10;14.57;;;9.98;;
37203;SDS011;23098;48.054;10.636;2024-03-02T01:01:35;14.40;;;9.38;;
37203;SDS011;23098;48.054;10.636;2024-03-02T01:04:01;14.77;;;8.95;;
37203;SDS011;23098;48.054;10.636;2024-03-02T01:06:26;13.20;;;9.52;;
37203;SDS011;23098;48.054;10.636;2024-03-02T01:08:52;14.65;;;9.63;;
37203;SDS011;23098;48.054;10.636;2024-03-02T01:11:18;12.98;;;9.43;;
37203;SDS011;23098;48.054;10.636;2024-03-02T01:13:44;15.48;;;9.35;;
37203;SDS011;23098;48.054;10.636;2024-03-02T01:16:11;13.63;;;8.73;;
37203;SDS011;23098;48.054;10.636;2024-03-02T01:18:36;12.10;;;8.98;;
37203;SDS011;23098;48.054;10.636;2024-03-02T01:21:02;13.18;;;8.60;;
37203;SDS011;23098;48.054;10.636;2024-03-02T01:23:28;11.32;;;8.07;;
37203;SDS011;23098;48.054;10.636;2024-03-02T01:25:53;12.10;;;7.97;;
37203;SDS011;23098;48.054;10.636;2024-03-02T01:28:20;12.75;;;8.50;;
37203;SDS011;23098;48.054;10.636;2024-03-02T01:30:46;12.63;;;8.30;;
37203;SDS011;23098;48.054;10.636;2024-03-02T01:33:12;11.77;;;8.18;;
37203;SDS011;23098;48.054;10.636;2024-03-02T01:35:37;11.85;;;8.48;;
37203;SDS011;23098;48.054;10.636;2024-03-02T01:38:03;12.65;;;8.77;;
37203;SDS011;23098;48.054;10.636;2024-03-02T01:40:33;14.00;;;8.88;;
37203;SDS011;23098;48.054;10.636;2024-03-02T01:42:59;10.93;;;7.80;;
37203;SDS011;23098;48.054;10.636;2024-03-02T01:45:24;11.95;;;7.55;;
37203;SDS011;23098;48.054;10.636;2024-03-02T01:47:50;12.38;;;8.10;;
37203;SDS011;23098;48.054;10.636;2024-03-02T01:50:16;11.70;;;7.70;;
37203;SDS011;23098;48.054;10.636;2024-03-02T01:52:49;13.23;;;7.95;;
37203;SDS011;23098;48.054;10.636;2024-03-02T01:55:14;13.95;;;9.27;;
37203;SDS011;23098;48.054;10.636;2024-03-02T01:57:40;12.95;;;8.80;;
37203;SDS011;23098;48.054;10.636;2024-03-02T02:00:06;14.05;;;8.23;;
37203;SDS011;23098;48.054;10.636;2024-03-02T02:02:32;11.25;;;8.23;;
37203;SDS011;23098;48.054;10.636;2024-03-02T02:04:57;13.65;;;8.15;;
37203;SDS011;23098;48.054;10.636;2024-03-02T02:07:23;13.43;;;8.75;;
37203;SDS011;23098;48.054;10.636;2024-03-02T02:09:49;10.93;;;8.02;;
37203;SDS011;23098;48.054;10.636;2024-03-02T02:12:14;13.55;;;8.60;;
37203;SDS011;23098;48.054;10.636;2024-03-02T02:14:46;12.63;;;8.25;;
37203;SDS011;23098;48.054;10.636;2024-03-02T02:17:13;13.52;;;9.05;;
37203;SDS011;23098;48.054;10.636;2024-03-02T02:19:40;13.98;;;8.93;;
37203;SDS011;23098;48.054;10.636;2024-03-02T02:22:06;12.43;;;8.63;;
37203;SDS011;23098;48.054;10.636;2024-03-02T02:24:31;13.18;;;8.50;;
37203;SDS011;23098;48.054;10.636;2024-03-02T02:26:56;12.07;;;8.50;;
37203;SDS011;23098;48.054;10.636;2024-03-02T02:29:22;13.27;;;8.50;;
37203;SDS011;23098;48.054;10.636;2024-03-02T02:31:47;13.70;;;8.85;;
37203;SDS011;23098;48.054;10.636;2024-03-02T02:34:14;12.38;;;8.52;;
37203;SDS011;23098;48.054;10.636;2024-03-02T02:36:39;13.32;;;8.75;;
37203;SDS011;23098;48.054;10.636;2024-03-02T02:39:05;14.13;;;9.18;;
37203;SDS011;23098;48.054;10.636;2024-03-02T02:41:35;15.40;;;9.17;;
37203;SDS011;23098;48.054;10.636;2024-03-02T02:44:01;12.02;;;8.70;;
37203;SDS011;23098;48.054;10.636;2024-03-02T02:46:26;11.93;;;8.25;;
37203;SDS011;23098;48.054;10.636;2024-03-02T02:48:52;13.48;;;8.75;;
37203;SDS011;23098;48.054;10.636;2024-03-02T02:51:18;12.80;;;8.40;;
37203;SDS011;23098;48.054;10.636;2024-03-02T02:53:44;12.90;;;8.68;;
37203;SDS011;23098;48.054;10.636;2024-03-02T02:56:09;12.05;;;8.50;;
37203;SDS011;23098;48.054;10.636;2024-03-02T02:58:35;13.35;;;8.45;;
37203;SDS011;23098;48.054;10.636;2024-03-02T03:01:01;12.75;;;8.55;;
37203;SDS011;23098;48.054;10.636;2024-03-02T03:03:27;13.23;;;8.18;;
37203;SDS011;23098;48.054;10.636;2024-03-02T03:05:52;12.68;;;8.60;;
37203;SDS011;23098;48.054;10.636;2024-03-02T03:08:18;12.32;;;8.55;;
37203;SDS011;23098;48.054;10.636;2024-03-02T03:10:43;12.93;;;7.75;;
37203;SDS011;23098;48.054;10.636;2024-03-02T03:13:09;12.18;;;8.00;;
37203;SDS011;23098;48.054;10.636;2024-03-02T03:15:35;10.95;;;7.28;;
37203;SDS011;23098;48.054;10.636;2024-03-02T03:18:03;10.90;;;7.47;;
37203;SDS011;23098;48.054;10.636;2024-03-02T03:20:29;12.68;;;8.20;;
37203;SDS011;23098;48.054;10.636;2024-03-02T03:22:55;12.40;;;8.60;;
37203;SDS011;23098;48.054;10.636;2024-03-02T03:25:21;12.18;;;8.18;;
37203;SDS011;23098;48.054;10.636;2024-03-02T03:27:47;12.75;;;8.52;;
37203;SDS011;23098;48.054;10.636;2024-03-02T03:30:13;11.60;;;8.00;;
37203;SDS011;23098;48.054;10.636;2024-03-02T03:32:38;11.18;;;7.93;;
37203;SDS011;23098;48.054;10.636;2024-03-02T03:35:04;12.85;;;8.57;;
37203;SDS011;23098;48.054;10.636;2024-03-02T03:37:31;13.45;;;8.20;;
37203;SDS011;23098;48.054;10.636;2024-03-02T03:39:58;12.07;;;8.35;;
37203;SDS011;23098;48.054;10.636;2024-03-02T03:42:24;11.77;;;8.13;;
37203;SDS011;23098;48.054;10.636;2024-03-02T03:44:50;11.18;;;8.00;;
37203;SDS011;23098;48.054;10.636;2024-03-02T03:47:15;11.13;;;7.80;;
37203;SDS011;23098;48.054;10.636;2024-03-02T03:49:41;13.32;;;8.15;;
37203;SDS011;23098;48.054;10.636;2024-03-02T03:52:06;13.95;;;9.13;;
37203;SDS011;23098;48.054;10.636;2024-03-02T03:54:32;11.77;;;8.32;;
37203;SDS011;23098;48.054;10.636;2024-03-02T03:56:57;12.80;;;8.57;;
37203;SDS011;23098;48.054;10.636;2024-03-02T03:59:23;13.55;;;8.68;;
37203;SDS011;23098;48.054;10.636;2024-03-02T04:01:48;13.63;;;8.50;;
37203;SDS011;23098;48.054;10.636;2024-03-02T04:04:14;13.55;;;9.10;;
37203;SDS011;23098;48.054;10.636;2024-03-02T04:06:40;12.70;;;8.57;;
37203;SDS011;23098;48.054;10.636;2024-03-02T04:09:05;12.15;;;8.80;;
37203;SDS011;23098;48.054;10.636;2024-03-02T04:11:31;12.48;;;8.40;;
37203;SDS011;23098;48.054;10.636;2024-03-02T04:13:56;11.40;;;7.93;;
37203;SDS011;23098;48.054;10.636;2024-03-02T04:16:22;11.63;;;8.70;;
37203;SDS011;23098;48.054;10.636;2024-03-02T04:18:47;12.65;;;8.45;;
37203;SDS011;23098;48.054;10.636;2024-03-02T04:21:13;10.75;;;7.78;;
37203;SDS011;23098;48.054;10.636;2024-03-02T04:23:39;12.73;;;8.90;;
37203;SDS011;23098;48.054;10.636;2024-03-02T04:26:04;13.73;;;9.88;;
37203;SDS011;23098;48.054;10.636;2024-03-02T04:28:30;14.57;;;8.30;;
37203;SDS011;23098;48.054;10.636;2024-03-02T04:30:55;15.98;;;9.65;;
37203;SDS011;23098;48.054;10.636;2024-03-02T04:33:21;13.35;;;9.05;;
37203;SDS011;23098;48.054;10.636;2024-03-02T04:35:46;12.68;;;9.10;;
37203;SDS011;23098;48.054;10.636;2024-03-02T04:38:12;14.30;;;8.90;;
37203;SDS011;23098;48.054;10.636;2024-03-02T04:40:37;13.13;;;8.85;;
37203;SDS011;23098;48.054;10.636;2024-03-02T04:43:03;13.60;;;8.40;;
37203;SDS011;23098;48.054;10.636;2024-03-02T04:45:28;15.02;;;9.13;;
37203;SDS011;23098;48.054;10.636;2024-03-02T04:47:54;13.13;;;8.10;;
37203;SDS011;23098;48.054;10.636;2024-03-02T04:50:20;13.65;;;8.98;;
37203;SDS011;23098;48.054;10.636;2024-03-02T04:52:45;14.18;;;9.18;;
37203;SDS011;23098;48.054;10.636;2024-03-02T04:55:12;14.65;;;8.70;;
37203;SDS011;23098;48.054;10.636;2024-03-02T04:57:40;12.02;;;8.25;;
37203;SDS011;23098;48.054;10.636;2024-03-02T05:00:06;13.63;;;8.40;;
37203;SDS011;23098;48.054;10.636;2024-03-02T05:02:33;12.55;;;8.57;;
37203;SDS011;23098;48.054;10.636;2024-03-02T05:04:59;13.07;;;8.23;;
37203;SDS011;23098;48.054;10.636;2024-03-02T05:07:25;11.48;;;8.02;;
37203;SDS011;23098;48.054;10.636;2024-03-02T05:09:50;14.32;;;8.63;;
37203;SDS011;23098;48.054;10.636;2024-03-02T05:12:16;13.48;;;8.88;;
37203;SDS011;23098;48.054;10.636;2024-03-02T05:15:00;13.32;;;8.02;;
37203;SDS011;23098;48.054;10.636;2024-03-02T05:17:26;13.65;;;9.35;;
37203;SDS011;23098;48.054;10.636;2024-03-02T05:19:52;14.38;;;8.43;;
37203;SDS011;23098;48.054;10.636;2024-03-02T05:22:18;14.15;;;7.85;;
37203;SDS011;23098;48.054;10.636;2024-03-02T05:24:43;12.13;;;8.18;;
37203;SDS011;23098;48.054;10.636;2024-03-02T05:27:09;14.27;;;9.57;;
37203;SDS011;23098;48.054;10.636;2024-03-02T05:29:35;21.27;;;10.57;;
37203;SDS011;23098;48.054;10.636;2024-03-02T05:32:01;18.90;;;10.85;;
37203;SDS011;23098;48.054;10.636;2024-03-02T05:34:26;14.75;;;8.95;;
37203;SDS011;23098;48.054;10.636;2024-03-02T05:36:52;14.10;;;9.07;;
37203;SDS011;23098;48.054;10.636;2024-03-02T05:39:18;14.10;;;8.00;;
37203;SDS011;23098;48.054;10.636;2024-03-02T05:41:43;12.63;;;8.27;;
37203;SDS011;23098;48.054;10.636;2024-03-02T05:44:09;12.85;;;8.20;;
37203;SDS011;23098;48.054;10.636;2024-03-02T05:46:34;10.38;;;7.30;;
37203;SDS011;23098;48.054;10.636;2024-03-02T05:49:00;14.23;;;8.57;;
37203;SDS011;23098;48.054;10.636;2024-03-02T05:51:26;13.38;;;8.40;;
37203;SDS011;23098;48.054;10.636;2024-03-02T05:53:51;17.05;;;9.98;;
37203;SDS011;23098;48.054;10.636;2024-03-02T05:56:17;12.68;;;8.60;;
37203;SDS011;23098;48.054;10.636;2024-03-02T05:58:42;13.10;;;9.05;;
37203;SDS011;23098;48.054;10.636;2024-03-02T06:01:20;15.27;;;8.98;;
37203;SDS011;23098;48.054;10.636;2024-03-02T06:03:47;18.38;;;10.07;;
37203;SDS011;23098;48.054;10.636;2024-03-02T06:06:14;19.08;;;10.70;;
37203;SDS011;23098;48.054;10.636;2024-03-02T06:08:39;18.17;;;10.32;;
37203;SDS011;23098;48.054;10.636;2024-03-02T06:11:05;16.48;;;9.75;;
37203;SDS011;23098;48.054;10.636;2024-03-02T06:13:30;15.00;;;9.40;;
37203;SDS011;23098;48.054;10.636;2024-03-02T06:15:56;18.08;;;9.30;;
37203;SDS011;23098;48.054;10.636;2024-03-02T06:18:21;17.80;;;10.55;;
37203;SDS011;23098;48.054;10.636;2024-03-02T06:20:47;37.28;;;16.20;;
37203;SDS011;23098;48.054;10.636;2024-03-02T06:23:14;24.02;;;13.70;;
37203;SDS011;23098;48.054;10.636;2024-03-02T06:25:39;33.08;;;16.83;;
37203;SDS011;23098;48.054;10.636;2024-03-02T06:28:05;22.85;;;12.93;;
37203;SDS011;23098;48.054;10.636;2024-03-02T06:30:30;25.55;;;12.50;;
37203;SDS011;23098;48.054;10.636;2024-03-02T06:32:56;10.70;;;7.65;;
37203;SDS011;23098;48.054;10.636;2024-03-02T06:35:21;11.15;;;7.55;;
37203;SDS011;23098;48.054;10.636;2024-03-02T06:37:47;10.30;;;6.78;;
37203;SDS011;23098;48.054;10.636;2024-03-02T06:40:12;9.95;;;6.68;;
37203;SDS011;23098;48.054;10.636;2024-03-02T06:42:38;9.63;;;6.47;;
37203;SDS011;23098;48.054;10.636;2024-03-02T06:45:04;8.35;;;6.10;;
37203;SDS011;23098;48.054;10.636;2024-03-02T06:47:30;8.50;;;6.30;;
37203;SDS011;23098;48.054;10.636;2024-03-02T06:49:56;8.45;;;6.13;;
37203;SDS011;23098;48.054;10.636;2024-03-02T06:52:22;8.75;;;6.32;;
37203;SDS011;23098;48.054;10.636;2024-03-02T06:54:47;10.38;;;6.55;;
37203;SDS011;23098;48.054;10.636;2024-03-02T06:57:13;11.90;;;7.53;;
37203;SDS011;23098;48.054;10.636;2024-03-02T06:59:38;16.40;;;7.40;;
37203;SDS011;23098;48.054;10.636;2024-03-02T07:02:04;11.35;;;6.63;;
37203;SDS011;23098;48.054;10.636;2024-03-02T07:04:30;10.68;;;6.65;;
37203;SDS011;23098;48.054;10.636;2024-03-02T07:06:55;9.50;;;6.70;;
37203;SDS011;23098;48.054;10.636;2024-03-02T07:09:21;11.45;;;7.07;;
37203;SDS011;23098;48.054;10.636;2024-03-02T07:11:49;10.70;;;7.43;;
37203;SDS011;23098;48.054;10.636;2024-03-02T07:14:16;8.63;;;6.50;;
37203;SDS011;23098;48.054;10.636;2024-03-02T07:16:42;8.38;;;6.60;;
37203;SDS011;23098;48.054;10.636;2024-03-02T07:19:08;10.52;;;6.22;;
37203;SDS011;23098;48.054;10.636;2024-03-02T07:21:34;7.97;;;6.00;;
37203;SDS011;23098;48.054;10.636;2024-03-02T07:23:59;8.27;;;5.80;;
37203;SDS011;23098;48.054;10.636;2024-03-02T07:26:27;8.00;;;6.10;;
37203;SDS011;23098;48.054;10.636;2024-03-02T07:28:53;11.77;;;6.90;;
37203;SDS011;23098;48.054;10.636;2024-03-02T07:31:19;10.40;;;7.07;;
37203;SDS011;23098;48.054;10.636;2024-03-02T07:33:44;8.02;;;6.03;;
37203;SDS011;23098;48.054;10.636;2024-03-02T07:36:11;8.27;;;5.45;;
37203;SDS011;23098;48.054;10.636;2024-03-02T07:38:37;7.40;;;5.50;;
37203;SDS011;23098;48.054;10.636;2024-03-02T07:41:03;8.13;;;5.43;;
37203;SDS011;23098;48.054;10.636;2024-03-02T07:43:29;7.78;;;5.47;;
37203;SDS011;23098;48.054;10.636;2024-03-02T07:45:56;7.75;;;5.40;;
37203;SDS011;23098;48.054;10.636;2024-03-02T07:48:22;9.82;;;5.53;;
37203;SDS011;23098;48.054;10.636;2024-03-02T07:50:48;7.70;;;5.32;;
37203;SDS011;23098;48.054;10.636;2024-03-02T07:53:13;8.00;;;5.55;;
37203;SDS011;23098;48.054;10.636;2024-03-02T07:55:39;6.97;;;5.20;;
37203;SDS011;23098;48.054;10.636;2024-03-02T07:58:05;6.35;;;4.80;;
37203;SDS011;23098;48.054;10.636;2024-03-02T08:00:31;7.70;;;5.45;;
37203;SDS011;23098;48.054;10.636;2024-03-02T08:02:57;7.47;;;5.00;;
37203;SDS011;23098;48.054;10.636;2024-03-02T08:05:22;6.32;;;5.13;;
37203;SDS011;23098;48.054;10.636;2024-03-02T08:07:48;6.40;;;4.78;;
37203;SDS011;23098;48.054;10.636;2024-03-02T08:10:17;6.25;;;4.85;;
37203;SDS011;23098;48.054;10.636;2024-03-02T08:12:44;5.80;;;4.55;;
37203;SDS011;23098;48.054;10.636;2024-03-02T08:15:09;8.20;;;4.70;;
37203;SDS011;23098;48.054;10.636;2024-03-02T08:17:35;5.43;;;4.22;;
37203;SDS011;23098;48.054;10.636;2024-03-02T08:20:00;5.40;;;4.28;;
37203;SDS011;23098;48.054;10.636;2024-03-02T08:22:26;4.05;;;3.40;;
37203;SDS011;23098;48.054;10.636;2024-03-02T08:24:52;3.92;;;3.35;;
37203;SDS011;23098;48.054;10.636;2024-03-02T08:27:19;4.30;;;3.10;;
37203;SDS011;23098;48.054;10.636;2024-03-02T08:29:45;4.68;;;3.55;;
37203;SDS011;23098;48.054;10.636;2024-03-02T08:32:10;3.40;;;3.10;;
37203;SDS011;23098;48.054;10.636;2024-03-02T08:34:36;4.60;;;3.13;;
37203;SDS011;23098;48.054;10.636;2024-03-02T08:37:02;5.03;;;3.63;;
37203;SDS011;23098;48.054;10.636;2024-03-02T08:39:27;4.07;;;3.30;;
37203;SDS011;23098;48.054;10.636;2024-03-02T08:41:53;3.85;;;3.45;;
37203;SDS011;23098;48.054;10.636;2024-03-02T08:44:19;4.47;;;3.38;;
37203;SDS011;23098;48.054;10.636;2024-03-02T08:46:45;4.15;;;3.72;;
37203;SDS011;23098;48.054;10.636;2024-03-02T08:49:11;4.97;;;3.40;;
37203;SDS011;23098;48.054;10.636;2024-03-02T08:51:37;3.72;;;2.70;;
37203;SDS011;23098;48.054;10.636;2024-03-02T08:54:03;3.78;;;3.13;;
37203;SDS011;23098;48.054;10.636;2024-03-02T08:56:30;3.50;;;2.67;;
37203;SDS011;23098;48.054;10.636;2024-03-02T08:58:56;4.55;;;2.72;;
37203;SDS011;23098;48.054;10.636;2024-03-02T09:01:22;3.92;;;2.90;;
37203;SDS011;23098;48.054;10.636;2024-03-02T09:03:48;3.33;;;2.47;;
37203;SDS011;23098;48.054;10.636;2024-03-02T09:06:16;3.55;;;3.10;;
37203;SDS011;23098;48.054;10.636;2024-03-02T09:08:42;3.92;;;2.60;;
37203;SDS011;23098;48.054;10.636;2024-03-02T09:11:08;3.20;;;2.53;;
37203;SDS011;23098;48.054;10.636;2024-03-02T09:13:35;3.35;;;2.50;;
37203;SDS011;23098;48.054;10.636;2024-03-02T09:16:02;4.47;;;2.42;;
37203;SDS011;23098;48.054;10.636;2024-03-02T09:18:27;2.60;;;2.20;;
37203;SDS011;23098;48.054;10.636;2024-03-02T09:20:53;2.50;;;2.20;;
37203;SDS011;23098;48.054;10.636;2024-03-02T09:23:32;3.72;;;1.60;;
37203;SDS011;23098;48.054;10.636;2024-03-02T09:25:58;3.15;;;1.70;;
37203;SDS011;23098;48.054;10.636;2024-03-02T09:28:24;2.60;;;2.20;;
37203;SDS011;23098;48.054;10.636;2024-03-02T09:30:50;2.42;;;2.20;;
37203;SDS011;23098;48.054;10.636;2024-03-02T09:33:15;4.75;;;2.33;;
37203;SDS011;23098;48.054;10.636;2024-03-02T09:35:41;3.78;;;2.42;;
37203;SDS011;23098;48.054;10.636;2024-03-02T09:38:06;3.97;;;2.05;;
37203;SDS011;23098;48.054;10.636;2024-03-02T09:40:33;2.58;;;2.13;;
37203;SDS011;23098;48.054;10.636;2024-03-02T09:42:59;3.60;;;2.15;;
37203;SDS011;23098;48.054;10.636;2024-03-02T09:45:25;2.13;;;1.63;;
37203;SDS011;23098;48.054;10.636;2024-03-02T09:47:51;5.05;;;1.90;;
37203;SDS011;23098;48.054;10.636;2024-03-02T09:50:17;2.00;;;1.70;;
37203;SDS011;23098;48.054;10.636;2024-03-02T09:52:42;3.28;;;1.70;;
37203;SDS011;23098;48.054;10.636;2024-03-02T09:55:09;2.50;;;1.73;;
37203;SDS011;23098;48.054;10.636;2024-03-02T09:57:34;2.35;;;1.85;;
37203;SDS011;23098;48.054;10.636;2024-03-02T10:00:00;1.75;;;1.25;;
37203;SDS011;23098;48.054;10.636;2024-03-02T10:02:25;1.40;;;1.27;;
37203;SDS011;23098;48.054;10.636;2024-03-02T10:04:51;1.55;;;1.27;;
37203;SDS011;23098;48.054;10.636;2024-03-02T10:07:17;1.65;;;1.08;;
37203;SDS011;23098;48.054;10.636;2024-03-02T10:09:47;1.30;;;1.00;;
37203;SDS011;23098;48.054;10.636;2024-03-02T10:12:14;1.10;;;0.90;;
37203;SDS011;23098;48.054;10.636;2024-03-02T10:14:41;0.95;;;0.80;;
37203;SDS011;23098;48.054;10.636;2024-03-02T10:17:08;2.80;;;0.90;;
37203;SDS011;23098;48.054;10.636;2024-03-02T10:19:35;1.00;;;0.70;;
37203;SDS011;23098;48.054;10.636;2024-03-02T10:22:05;0.68;;;0.68;;
37203;SDS011;23098;48.054;10.636;2024-03-02T10:24:42;1.55;;;0.90;;
37203;SDS011;23098;48.054;10.636;2024-03-02T10:29:42;1.30;;;0.90;;
37203;SDS011;23098;48.054;10.636;2024-03-02T10:32:10;0.85;;;0.65;;
37203;SDS011;23098;48.054;10.636;2024-03-02T10:34:37;1.42;;;0.80;;
37203;SDS011;23098;48.054;10.636;2024-03-02T10:37:06;2.40;;;1.20;;
37203;SDS011;23098;48.054;10.636;2024-03-02T10:39:32;1.67;;;1.30;;
37203;SDS011;23098;48.054;10.636;2024-03-02T10:42:00;1.05;;;0.93;;
37203;SDS011;23098;48.054;10.636;2024-03-02T10:44:28;1.40;;;1.00;;
37203;SDS011;23098;48.054;10.636;2024-03-02T10:46:55;2.72;;;0.93;;
37203;SDS011;23098;48.054;10.636;2024-03-02T10:49:22;1.48;;;1.08;;
37203;SDS011;23098;48.054;10.636;2024-03-02T10:51:49;1.45;;;1.10;;
37203;SDS011;23098;48.054;10.636;2024-03-02T10:54:14;1.55;;;1.20;;
37203;SDS011;23098;48.054;10.636;2024-03-02T10:56:40;2.25;;;1.60;;
37203;SDS011;23098;48.054;10.636;2024-03-02T11:01:47;2.85;;;1.70;;
37203;SDS011;23098;48.054;10.636;2024-03-02T11:04:18;2.17;;;1.98;;
37203;SDS011;23098;48.054;10.636;2024-03-02T11:09:27;2.67;;;1.70;;
37203;SDS011;23098;48.054;10.636;2024-03-02T11:12:16;2.63;;;1.65;;
37203;SDS011;23098;48.054;10.636;2024-03-02T11:14:50;1.80;;;1.42;;
37203;SDS011;23098;48.054;10.636;2024-03-02T11:17:17;1.98;;;1.15;;
37203;SDS011;23098;48.054;10.636;2024-03-02T11:19:43;2.28;;;0.90;;
37203;SDS011;23098;48.054;10.636;2024-03-02T11:22:13;2.65;;;0.90;;
37203;SDS011;23098;48.054;10.636;2024-03-02T11:24:40;0.90;;;0.80;;
37203;SDS011;23098;48.054;10.636;2024-03-02T11:27:59;1.02;;;0.77;;
37203;SDS011;23098;48.054;10.636;2024-03-02T11:33:07;1.50;;;1.30;;
37203;SDS011;23098;48.054;10.636;2024-03-02T11:35:33;2.00;;;1.70;;
37203;SDS011;23098;48.054;10.636;2024-03-02T11:38:12;2.60;;;1.55;;
37203;SDS011;23098;48.054;10.636;2024-03-02T11:40:41;3.42;;;2.17;;
37203;SDS011;23098;48.054;10.636;2024-03-02T11:43:07;2.83;;;2.20;;
37203;SDS011;23098;48.054;10.636;2024-03-02T11:45:33;2.95;;;2.38;;
37203;SDS011;23098;48.054;10.636;2024-03-02T11:48:04;3.78;;;2.15;;
37203;SDS011;23098;48.054;10.636;2024-03-02T11:50:33;1.67;;;1.58;;
37203;SDS011;23098;48.054;10.636;2024-03-02T11:53:02;2.83;;;2.30;;
37203;SDS011;23098;48.054;10.636;2024-03-02T11:55:36;2.30;;;1.70;;
37203;SDS011;23098;48.054;10.636;2024-03-02T11:58:03;4.07;;;2.47;;
37203;SDS011;23098;48.054;10.636;2024-03-02T12:00:29;3.22;;;2.15;;
37203;SDS011;23098;48.054;10.636;2024-03-02T12:03:02;0.98;;;0.90;;
37203;SDS011;23098;48.054;10.636;2024-03-02T12:05:31;2.10;;;1.63;;
37203;SDS011;23098;48.054;10.636;2024-03-02T12:07:57;1.50;;;1.38;;
37203;SDS011;23098;48.054;10.636;2024-03-02T12:10:24;3.53;;;1.35;;
37203;SDS011;23098;48.054;10.636;2024-03-02T12:12:57;1.85;;;1.52;;
37203;SDS011;23098;48.054;10.636;2024-03-02T12:15:24;1.27;;;1.00;;
37203;SDS011;23098;48.054;10.636;2024-03-02T12:17:52;1.38;;;1.27;;
37203;SDS011;23098;48.054;10.636;2024-03-02T12:20:22;1.38;;;1.10;;
37203;SDS011;23098;48.054;10.636;2024-03-02T12:22:52;1.10;;;1.00;;
37203;SDS011;23098;48.054;10.636;2024-03-02T12:25:19;1.00;;;0.90;;
37203;SDS011;23098;48.054;10.636;2024-03-02T12:27:45;0.85;;;0.70;;
37203;SDS011;23098;48.054;10.636;2024-03-02T12:30:19;0.80;;;0.80;;
37203;SDS011;23098;48.054;10.636;2024-03-02T12:32:45;1.05;;;0.90;;
37203;SDS011;23098;48.054;10.636;2024-03-02T12:35:11;2.33;;;0.82;;
37203;SDS011;23098;48.054;10.636;2024-03-02T12:37:47;0.70;;;0.70;;
37203;SDS011;23098;48.054;10.636;2024-03-02T12:40:14;0.95;;;0.70;;
37203;SDS011;23098;48.054;10.636;2024-03-02T12:42:42;0.95;;;0.85;;
37203;SDS011;23098;48.054;10.636;2024-03-02T12:45:08;1.00;;;0.90;;
37203;SDS011;23098;48.054;10.636;2024-03-02T12:47:34;1.10;;;0.85;;
37203;SDS011;23098;48.054;10.636;2024-03-02T12:50:01;1.92;;;1.00;;
37203;SDS011;23098;48.054;10.636;2024-03-02T12:52:27;2.03;;;0.90;;
37203;SDS011;23098;48.054;10.636;2024-03-02T12:54:53;1.13;;;1.00;;
37203;SDS011;23098;48.054;10.636;2024-03-02T12:57:24;1.10;;;1.00;;
37203;SDS011;23098;48.054;10.636;2024-03-02T12:59:57;2.20;;;1.23;;
37203;SDS011;23098;48.054;10.636;2024-03-02T13:02:26;2.25;;;1.38;;
37203;SDS011;23098;48.054;10.636;2024-03-02T13:04:53;3.70;;;1.80;;
37203;SDS011;23098;48.054;10.636;2024-03-02T13:07:19;2.10;;;1.65;;
37203;SDS011;23098;48.054;10.636;2024-03-02T13:09:45;2.15;;;1.73;;
37203;SDS011;23098;48.054;10.636;2024-03-02T13:12:11;2.67;;;1.80;;
37203;SDS011;23098;48.054;10.636;2024-03-02T13:14:36;2.65;;;1.58;;
37203;SDS011;23098;48.054;10.636;2024-03-02T13:17:02;2.97;;;2.00;;
37203;SDS011;23098;48.054;10.636;2024-03-02T13:19:30;4.70;;;1.90;;
37203;SDS011;23098;48.054;10.636;2024-03-02T13:21:56;3.10;;;1.80;;
37203;SDS011;23098;48.054;10.636;2024-03-02T13:24:22;2.70;;;2.15;;
37203;SDS011;23098;48.054;10.636;2024-03-02T13:26:50;5.28;;;2.60;;
37203;SDS011;23098;48.054;10.636;2024-03-02T13:29:20;1.75;;;1.60;;
37203;SDS011;23098;48.054;10.636;2024-03-02T13:31:46;5.22;;;2.00;;
37203;SDS011;23098;48.054;10.636;2024-03-02T13:34:12;2.88;;;1.83;;
37203;SDS011;23098;48.054;10.636;2024-03-02T13:36:37;2.95;;;2.10;;
37203;SDS011;23098;48.054;10.636;2024-03-02T13:39:03;4.68;;;2.42;;
37203;SDS011;23098;48.054;10.636;2024-03-02T13:44:00;4.25;;;2.15;;
37203;SDS011;23098;48.054;10.636;2024-03-02T13:46:26;5.80;;;2.83;;
37203;SDS011;23098;48.054;10.636;2024-03-02T13:48:52;3.50;;;2.33;;
37203;SDS011;23098;48.054;10.636;2024-03-02T13:51:19;7.50;;;2.95;;
37203;SDS011;23098;48.054;10.636;2024-03-02T13:53:44;5.03;;;3.58;;
37203;SDS011;23098;48.054;10.636;2024-03-02T13:56:10;4.93;;;3.60;;
37203;SDS011;23098;48.054;10.636;2024-03-02T13:58:35;5.07;;;3.85;;
37203;SDS011;23098;48.054;10.636;2024-03-02T14:01:01;6.22;;;3.70;;
37203;SDS011;23098;48.054;10.636;2024-03-02T14:03:29;5.47;;;3.65;;
37203;SDS011;23098;48.054;10.636;2024-03-02T14:05:55;5.25;;;3.10;;
37203;SDS011;23098;48.054;10.636;2024-03-02T14:08:21;7.88;;;4.93;;
37203;SDS011;23098;48.054;10.636;2024-03-02T14:10:46;8.13;;;5.22;;
37203;SDS011;23098;48.054;10.636;2024-03-02T14:13:13;6.65;;;5.07;;
37203;SDS011;23098;48.054;10.636;2024-03-02T14:15:39;10.23;;;4.10;;
37203;SDS011;23098;48.054;10.636;2024-03-02T14:18:05;7.35;;;4.32;;
37203;SDS011;23098;48.054;10.636;2024-03-02T14:20:31;5.93;;;3.33;;
37203;SDS011;23098;48.054;10.636;2024-03-02T14:22:57;4.90;;;2.15;;
37203;SDS011;23098;48.054;10.636;2024-03-02T14:25:24;2.88;;;1.75;;
37203;SDS011;23098;48.054;10.636;2024-03-02T14:27:50;5.47;;;2.75;;
37203;SDS011;23098;48.054;10.636;2024-03-02T14:30:16;2.42;;;1.73;;
37203;SDS011;23098;48.054;10.636;2024-03-02T14:32:41;4.00;;;1.58;;
37203;SDS011;23098;48.054;10.636;2024-03-02T14:35:07;3.70;;;2.05;;
37203;SDS011;23098;48.054;10.636;2024-03-02T14:37:35;4.13;;;2.35;;
37203;SDS011;23098;48.054;10.636;2024-03-02T14:40:01;2.90;;;2.15;;
37203;SDS011;23098;48.054;10.636;2024-03-02T14:42:27;3.40;;;1.83;;
37203;SDS011;23098;48.054;10.636;2024-03-02T14:44:56;2.38;;;1.70;;
37203;SDS011;23098;48.054;10.636;2024-03-02T14:47:22;7.97;;;1.80;;